createdAt,value
2022-10-19T00:04:55.602Z,24.3
2022-10-19T00:09:57.578Z,21.9
2022-10-19T00:14:59.743Z,31.4
2022-10-19T00:20:01.879Z,21.4
2022-10-19T00:25:03.876Z,32.1
2022-10-19T00:30:05.943Z,18.5
2022-10-19T00:35:08.074Z,29.7
2022-10-19T00:40:10.218Z,25.3
2022-10-19T00:45:12.300Z,32.4
2022-10-19T00:50:14.486Z,27.9
2022-10-19T00:55:16.675Z,25.2
2022-10-19T01:00:19.048Z,28.2
2022-10-19T01:05:21.097Z,23.2
2022-10-19T01:10:23.174Z,29.7
2022-10-19T01:15:25.336Z,22.9
2022-10-19T01:20:27.605Z,25.2
2022-10-19T01:25:29.790Z,23
2022-10-19T01:30:31.935Z,19.5
2022-10-19T01:35:34.069Z,14.4
2022-10-19T01:40:36.263Z,16.8
2022-10-19T01:45:38.266Z,19.2
2022-10-19T01:50:40.293Z,19.3
2022-10-19T01:55:42.947Z,14.5
2022-10-19T02:00:45.082Z,13.8
2022-10-19T02:05:47.733Z,13.6
2022-10-19T02:10:49.932Z,16
2022-10-19T02:15:51.916Z,14.7
2022-10-19T02:20:54.190Z,13.2
2022-10-19T02:25:56.484Z,17.9
2022-10-19T02:30:58.773Z,15.9
2022-10-19T02:36:01.031Z,19.1
2022-10-19T02:41:03.265Z,15.4
2022-10-19T02:46:05.438Z,16.4
2022-10-19T02:51:07.469Z,17.3
2022-10-19T02:56:09.800Z,16.4
2022-10-19T03:01:12.553Z,17.1
2022-10-19T03:06:14.798Z,17.2
2022-10-19T03:11:17.202Z,18.4
2022-10-19T03:16:19.327Z,18.8
2022-10-19T03:21:21.654Z,22.6
2022-10-19T03:26:23.629Z,18.6
2022-10-19T03:31:25.813Z,22.3
2022-10-19T03:36:28.028Z,19.2
2022-10-19T03:41:30.125Z,17.9
2022-10-19T03:46:32.126Z,19.4
2022-10-19T03:51:34.345Z,20.1
2022-10-19T03:56:36.467Z,18.5
2022-10-19T04:01:38.666Z,19.4
2022-10-19T04:06:40.774Z,18.6
2022-10-19T04:11:43.081Z,18.7
2022-10-19T04:16:45.332Z,20.8
2022-10-19T04:21:47.571Z,21.1
2022-10-19T04:26:49.583Z,19.6
2022-10-19T04:31:51.732Z,23.2
2022-10-19T04:36:53.866Z,21
2022-10-19T04:41:57.217Z,20.1
2022-10-19T04:46:59.402Z,20.1
2022-10-19T04:52:01.732Z,23.7
2022-10-19T04:57:04.324Z,21.5
2022-10-19T05:02:06.479Z,20.3
2022-10-19T05:07:08.518Z,25.7
2022-10-19T05:12:10.901Z,23.3
2022-10-19T05:17:13.188Z,26.3
2022-10-19T05:22:15.194Z,34.9
2022-10-19T05:27:17.860Z,26.2
2022-10-19T05:32:20.404Z,30.5
2022-10-19T05:37:22.726Z,24.3
2022-10-19T05:42:24.788Z,30.7
2022-10-19T05:47:27.462Z,35
2022-10-19T05:52:33.864Z,30.6
2022-10-19T05:57:36.353Z,24
2022-10-19T06:02:39.538Z,27.8
2022-10-19T06:07:41.589Z,45.7
2022-10-19T06:12:42.182Z,20
2022-10-19T06:17:44.175Z,20.7
2022-10-19T06:22:46.620Z,25.7
2022-10-19T06:27:48.658Z,26.6
2022-10-19T06:32:50.959Z,24.2
2022-10-19T06:37:53.883Z,19
2022-10-19T06:42:56.024Z,20.9
2022-10-19T06:47:59.023Z,19.3
2022-10-19T06:53:08.345Z,76.8
2022-10-19T06:58:10.557Z,15.4
2022-10-19T07:03:13.062Z,18.2
2022-10-19T07:08:15.262Z,20.2
2022-10-19T07:13:17.529Z,30.5
2022-10-19T07:18:17.996Z,17
2022-10-19T07:23:20.502Z,12.1
2022-10-19T07:28:22.599Z,16.2
2022-10-19T07:33:24.759Z,11.5
2022-10-19T07:38:27.293Z,12.8
2022-10-19T07:43:29.386Z,8.4
2022-10-19T07:48:31.634Z,8.3
2022-10-19T07:53:34.027Z,7.9
2022-10-19T07:58:36.574Z,13.8
2022-10-19T08:08:44.918Z,8.8
2022-10-19T08:13:47.158Z,15.2
2022-10-19T08:18:49.205Z,9.5
2022-10-19T08:23:51.207Z,11.1
2022-10-19T08:28:53.271Z,9.6
2022-10-19T08:33:55.640Z,10.6
2022-10-19T08:38:57.773Z,7.1
2022-10-19T08:43:59.899Z,6.9
2022-10-19T08:49:09.275Z,5.1
2022-10-19T08:54:11.571Z,6.1
2022-10-19T08:59:13.693Z,6.8
2022-10-19T09:04:15.760Z,16
2022-10-19T09:09:17.857Z,4.8
2022-10-19T09:14:20.028Z,10.9
2022-10-19T09:19:22.087Z,5.3
2022-10-19T09:24:24.350Z,6.6
2022-10-19T09:29:26.667Z,5.3
2022-10-19T09:34:28.738Z,8.1
2022-10-19T09:39:30.785Z,6.6
2022-10-19T09:44:32.935Z,7.3
2022-10-19T09:49:35.822Z,8.5
2022-10-19T09:54:38.066Z,4.5
2022-10-19T09:59:40.149Z,6.4
2022-10-19T10:04:42.372Z,7.6
2022-10-19T10:09:44.559Z,8.2
2022-10-19T10:14:46.558Z,6.4
2022-10-19T10:19:48.726Z,7.6
2022-10-19T10:24:50.831Z,7.4
2022-10-19T10:29:52.893Z,30.5
2022-10-19T10:34:57.273Z,8.8
2022-10-19T10:40:04.655Z,4.4
2022-10-19T10:45:07.362Z,4.5
2022-10-19T10:50:09.643Z,5
2022-10-19T10:55:11.946Z,5.8
2022-10-19T11:00:14.044Z,4.9
2022-10-19T11:05:16.673Z,4.9
2022-10-19T11:10:18.927Z,7.4
2022-10-19T11:15:21.299Z,14.4
2022-10-19T11:20:23.660Z,4.2
2022-10-19T11:25:25.753Z,4.5
2022-10-19T11:30:27.769Z,4
2022-10-19T11:35:29.748Z,6.2
2022-10-19T11:40:31.789Z,20.3
2022-10-19T11:45:34.103Z,3.3
2022-10-19T11:50:36.174Z,9.3
2022-10-19T11:55:38.235Z,6.4
2022-10-19T12:00:40.561Z,3.5
2022-10-19T12:05:43.239Z,4.1
2022-10-19T12:10:45.555Z,4.7
2022-10-19T12:15:48.020Z,4.4
2022-10-19T12:20:50.360Z,11.6
2022-10-19T12:25:52.611Z,8.5
2022-10-19T12:30:55.065Z,12.5
2022-10-19T12:35:57.343Z,6.1
2022-10-19T12:40:59.704Z,13.5
2022-10-19T12:46:01.972Z,10
2022-10-19T12:51:04.190Z,7.6
2022-10-19T12:56:06.395Z,8.9
2022-10-19T13:01:08.713Z,9.1
2022-10-19T13:06:11.266Z,13.9
2022-10-19T13:11:13.544Z,7.3
2022-10-19T13:16:15.712Z,5.7
2022-10-19T13:21:17.828Z,6
2022-10-19T13:26:19.995Z,13.9
2022-10-19T13:31:22.545Z,18.4
2022-10-19T13:36:25.373Z,6.6
2022-10-19T13:41:27.517Z,21.8
2022-10-19T13:46:29.624Z,9.5
2022-10-19T13:51:31.703Z,14.8
2022-10-19T13:56:33.948Z,8.9
2022-10-19T14:01:36.132Z,5.8
2022-10-19T14:06:38.516Z,8.1
2022-10-19T14:11:40.701Z,7.8
2022-10-19T14:16:42.977Z,7.4
2022-10-19T14:21:45.475Z,8.6
2022-10-19T14:26:47.941Z,7.1
2022-10-19T14:31:50.194Z,11.4
2022-10-19T14:36:52.349Z,9.9
2022-10-19T14:41:55.157Z,5.1
2022-10-19T14:47:03.585Z,10.2
2022-10-19T14:52:05.653Z,6.4
2022-10-19T14:57:07.892Z,8.4
2022-10-19T15:02:10.061Z,4.4
2022-10-19T15:07:12.422Z,5.6
2022-10-19T15:12:14.600Z,5.9
2022-10-19T15:17:20.189Z,4.8
2022-10-19T15:22:23.102Z,5.6
2022-10-19T15:27:25.330Z,7.3
2022-10-19T15:32:27.856Z,7.1
2022-10-19T15:37:30.047Z,5.1
2022-10-19T15:42:33.015Z,3
2022-10-19T15:47:37.357Z,4.9
2022-10-19T15:52:40.055Z,4.5
2022-10-19T15:57:42.406Z,5.6
2022-10-19T16:02:44.701Z,7.8
2022-10-19T16:07:46.752Z,10.2
2022-10-19T16:12:48.799Z,9.7
2022-10-19T16:17:51.038Z,11.6
2022-10-19T16:22:53.236Z,9.2
2022-10-19T16:27:55.320Z,10.5
2022-10-19T16:32:57.495Z,10.2
2022-10-19T16:37:59.565Z,6.8
2022-10-19T16:43:01.888Z,8.6
2022-10-19T16:48:05.270Z,8.6
2022-10-19T16:53:07.561Z,9.1
2022-10-19T16:58:10.152Z,9.8
2022-10-19T17:03:12.324Z,5.7
2022-10-19T17:08:14.374Z,9.4
2022-10-19T17:13:16.888Z,6.4
2022-10-19T17:23:21.100Z,8.1
2022-10-19T17:28:24.227Z,5.1
2022-10-19T17:33:29.331Z,7.6
2022-10-19T17:38:31.297Z,5.4
2022-10-19T17:43:33.374Z,5.1
2022-10-19T17:48:35.532Z,5.6
2022-10-19T17:53:37.582Z,6.3
2022-10-19T17:58:39.889Z,7.3
2022-10-19T18:03:42.619Z,7.9
2022-10-19T18:08:44.856Z,6.8
2022-10-19T18:13:47.327Z,9
2022-10-19T18:18:50.680Z,6.7
2022-10-19T18:23:53.756Z,6.2
2022-10-19T18:28:55.783Z,6.1
2022-10-19T18:33:57.893Z,7.9
2022-10-19T18:39:00.242Z,8.1
2022-10-19T18:44:02.257Z,5.5
2022-10-19T18:49:04.143Z,9.8
2022-10-19T18:54:06.599Z,7.3
2022-10-19T18:59:08.760Z,8.3
2022-10-19T19:04:11.163Z,9.1
2022-10-19T19:09:13.474Z,7.8
2022-10-19T19:14:15.656Z,8.4
2022-10-19T19:19:17.690Z,7.5
2022-10-19T19:24:20.076Z,8.2
2022-10-19T19:29:22.101Z,7
2022-10-19T19:34:24.242Z,8.8
2022-10-19T19:39:26.330Z,7.4
2022-10-19T19:44:28.530Z,6.6
2022-10-19T19:49:30.737Z,6.3
2022-10-19T19:54:32.984Z,8.2
2022-10-19T19:59:35.382Z,6.1
2022-10-19T20:04:37.344Z,7.7
2022-10-19T20:09:39.560Z,9.1
2022-10-19T20:14:41.805Z,7.3
2022-10-19T20:19:43.878Z,7.3
2022-10-19T20:24:45.975Z,7.1
2022-10-19T20:29:48.823Z,7.6
2022-10-19T20:34:51.184Z,7.4
2022-10-19T20:39:53.186Z,7.7
2022-10-19T20:44:55.200Z,7.8
2022-10-19T20:49:57.362Z,8.1
2022-10-19T20:54:59.774Z,9.6
2022-10-19T21:00:01.766Z,8.6
2022-10-19T21:05:04.005Z,7.6
2022-10-19T21:10:06.304Z,7.4
2022-10-19T21:15:08.311Z,8.5
2022-10-19T21:20:10.471Z,5.8
2022-10-19T21:25:12.698Z,9.2
2022-10-19T21:30:14.979Z,8.9
2022-10-19T21:35:16.959Z,8.5
2022-10-19T21:40:18.908Z,6.5
2022-10-19T21:45:36.272Z,8
2022-10-19T21:50:28.807Z,8.3
2022-10-19T21:55:30.683Z,8.6
2022-10-19T22:00:32.926Z,7.8
2022-10-19T22:05:35.007Z,8.1
2022-10-19T22:10:37.107Z,9.4
2022-10-19T22:15:39.234Z,8.8
2022-10-19T22:20:41.349Z,7.6
2022-10-19T22:25:43.497Z,8.5
2022-10-19T22:30:45.590Z,9
2022-10-19T22:35:47.874Z,8.4
2022-10-19T22:40:50.182Z,8.3
2022-10-19T22:50:55.159Z,10.7
2022-10-19T22:55:57.219Z,7.5
2022-10-19T23:00:59.329Z,9.4
2022-10-19T23:06:01.692Z,9.1
2022-10-19T23:11:03.700Z,8.4
2022-10-19T23:16:05.810Z,9.3
2022-10-19T23:21:07.871Z,8
2022-10-19T23:26:10.247Z,8.5
2022-10-19T23:31:12.536Z,8.3
2022-10-19T23:36:14.492Z,10
2022-10-19T23:41:16.691Z,7.9
2022-10-19T23:46:18.964Z,9.6
2022-10-19T23:51:21.413Z,8.9
2022-10-19T23:56:23.630Z,8.2
